MMCU/CUU METAR and TAF weather

Enter ICAO airport designator
Station Type Date Time Source
MMCU METAR 2019/08/26 02:46 UTC NOAA

MMCU 260246Z 00000KT 10SM SKC 29/14 A3005 RMK SLP052 52005 981


Station Type Date Time Source
MMCU Decoded METAR 2019/08/26 02:46 UTC NOAA

Station name not available
Aug 25, 2019 - 10:46 PM EDT / 2019.08.26 0246 UTC
Wind: Calm:0
Visibility: 10 mile(s):0
Sky conditions: clear
Temperature: 84 F (29 C)
Dew Point: 57 F (14 C)
Relative Humidity: 39%
Pressure (altimeter): 30.05 in. Hg (1017 hPa)
Pressure tendency: 0.01 inches (0.5 hPa) higher than three hours ago
ob: MMCU 260246Z 00000KT 10SM SKC 29/14 A3005 RMK SLP052 52005 981
cycle: 3

Station Type Date Time Source
MMCU TAF 2019/08/26 06:45 UTC NOAA

TAF MMCU 260538Z 2606/2706 00000KT P6SM SKC
FM261800 03010KT P6SM SCT030 SCT080 BKN250
FM270500 00000KT P6SM SKC

Example: see airport list